Time;durP1;ratioP1;P1;durP2;ratioP2;P2;SDS_P1;SDS_P2;PMS_P1;PMS_P2;Temp;Humidity;BMP_temperature;BMP_pressure;BME280_temperature;BME280_humidity;BME280_pressure;Samples;Min_cycle;Max_cycle;Signal;HPM_P1;HPM_P2
2024/02/27 00:01:41;;;;;;;4.10;1.70;;;4.50;99.90;;;;;;5043335;28;20047;-74
2024/02/27 00:04:08;;;;;;;6.47;2.10;;;4.50;99.90;;;;;;5042975;28;20082;-74
2024/02/27 00:06:34;;;;;;;9.95;2.92;;;4.40;99.90;;;;;;5047226;28;20568;-74
2024/02/27 00:08:59;;;;;;;4.30;1.90;;;4.40;99.90;;;;;;5058423;28;21019;-75
2024/02/27 00:11:25;;;;;;;4.63;2.10;;;4.40;99.90;;;;;;5064460;28;20050;-74
2024/02/27 00:13:51;;;;;;;6.40;2.45;;;4.40;99.90;;;;;;5042887;28;20100;-75
2024/02/27 00:16:17;;;;;;;4.55;2.47;;;4.40;99.90;;;;;;5047079;28;20056;-74
2024/02/27 00:18:44;;;;;;;8.77;3.13;;;4.50;99.90;;;;;;5047284;28;20520;-74
2024/02/27 00:21:09;;;;;;;6.43;2.05;;;4.40;99.90;;;;;;5046928;28;20123;-75
2024/02/27 00:23:36;;;;;;;3.55;1.70;;;4.40;99.90;;;;;;5044776;28;20083;-74
2024/02/27 00:26:01;;;;;;;6.07;2.08;;;4.30;99.90;;;;;;5062224;28;20481;-74
2024/02/27 00:28:27;;;;;;;5.80;1.70;;;4.30;99.90;;;;;;5048452;28;20040;-75
2024/02/27 00:30:52;;;;;;;4.28;1.95;;;4.30;99.90;;;;;;5047043;28;20067;-74
2024/02/27 00:33:18;;;;;;;3.83;1.77;;;4.30;99.90;;;;;;5063622;28;20028;-75
2024/02/27 00:35:43;;;;;;;4.05;2.20;;;4.30;99.90;;;;;;5064152;28;20087;-74
2024/02/27 00:38:10;;;;;;;12.63;2.42;;;4.20;99.90;;;;;;5051538;28;20536;-73
2024/02/27 00:40:36;;;;;;;4.90;2.45;;;4.20;99.90;;;;;;5061184;28;20028;-74
2024/02/27 00:43:02;;;;;;;7.88;2.05;;;4.20;99.90;;;;;;5067461;28;20067;-75
2024/02/27 00:45:28;;;;;;;5.55;2.28;;;4.30;99.90;;;;;;5069471;28;20052;-75
2024/02/27 00:47:53;;;;;;;4.85;2.25;;;4.30;99.90;;;;;;5047722;28;20032;-73
2024/02/27 00:50:19;;;;;;;6.90;1.90;;;4.30;99.90;;;;;;5068994;28;20048;-74
2024/02/27 00:52:44;;;;;;;6.72;2.58;;;4.30;99.90;;;;;;5066497;28;20032;-74
2024/02/27 00:55:10;;;;;;;3.78;1.88;;;4.20;99.90;;;;;;5067960;28;20142;-74
2024/02/27 00:57:36;;;;;;;4.47;1.98;;;4.20;99.90;;;;;;5069540;28;20033;-73
2024/02/27 01:00:08;;;;;;;5.15;2.17;;;4.20;99.90;;;;;;5050440;28;20068;-74
2024/02/27 01:02:38;;;;;;;5.88;2.00;;;4.20;99.90;;;;;;5052029;28;20036;-74
2024/02/27 01:05:04;;;;;;;5.00;2.33;;;4.20;99.90;;;;;;5068070;28;20056;-74
2024/02/27 01:07:30;;;;;;;5.95;1.67;;;4.20;99.90;;;;;;5050954;28;20036;-74
2024/02/27 01:09:56;;;;;;;3.80;1.80;;;4.20;99.90;;;;;;5062229;28;20033;-75
2024/02/27 01:12:22;;;;;;;4.90;2.10;;;4.20;99.90;;;;;;5028147;28;20494;-75
2024/02/27 01:14:47;;;;;;;6.20;2.17;;;4.20;99.90;;;;;;5029995;28;20063;-75
2024/02/27 01:17:13;;;;;;;5.32;2.03;;;4.10;99.90;;;;;;5041486;28;20060;-73
2024/02/27 01:19:39;;;;;;;6.85;2.47;;;4.10;99.90;;;;;;5025278;28;20129;-74
2024/02/27 01:22:04;;;;;;;4.28;2.20;;;4.10;99.90;;;;;;5025906;28;20025;-75
2024/02/27 01:24:30;;;;;;;4.93;1.52;;;4.20;99.90;;;;;;5039043;28;20065;-75
2024/02/27 01:26:55;;;;;;;4.00;1.60;;;4.10;99.90;;;;;;5041126;28;20463;-75
2024/02/27 01:29:22;;;;;;;6.72;1.85;;;4.10;99.90;;;;;;5038441;28;20041;-74
2024/02/27 01:31:48;;;;;;;6.80;2.17;;;4.10;99.90;;;;;;5040835;28;20502;-74
2024/02/27 01:34:13;;;;;;;3.97;1.48;;;4.10;99.90;;;;;;5063038;28;20081;-73
2024/02/27 01:36:39;;;;;;;2.17;1.38;;;4.10;99.90;;;;;;5057350;28;20037;-74
2024/02/27 01:39:04;;;;;;;6.30;1.75;;;4.10;99.90;;;;;;5042719;28;20045;-73
2024/02/27 01:41:34;;;;;;;6.75;2.25;;;4.00;99.90;;;;;;5039448;28;20037;-74
2024/02/27 01:43:59;;;;;;;5.97;1.50;;;4.10;99.90;;;;;;5041405;28;20489;-75
2024/02/27 01:46:25;;;;;;;4.30;1.95;;;4.00;99.90;;;;;;5022891;28;20038;-74
2024/02/27 01:48:53;;;;;;;5.60;1.70;;;4.00;99.90;;;;;;5029857;28;20029;-74
2024/02/27 01:51:19;;;;;;;6.10;1.95;;;4.00;99.90;;;;;;5028771;28;20029;-74
2024/02/27 01:53:52;;;;;;;3.88;1.63;;;4.00;99.90;;;;;;5042984;28;20188;-74
2024/02/27 01:56:19;;;;;;;4.07;1.92;;;4.00;99.90;;;;;;5036452;28;20090;-74
2024/02/27 01:58:46;;;;;;;3.75;1.90;;;4.00;99.90;;;;;;5029421;28;20089;-74
2024/02/27 02:01:13;;;;;;;4.35;1.60;;;3.90;99.90;;;;;;5029735;28;20512;-73
2024/02/27 02:03:40;;;;;;;4.60;1.50;;;4.00;99.90;;;;;;5025364;28;20040;-74
2024/02/27 02:06:06;;;;;;;5.35;1.73;;;4.00;99.90;;;;;;5045982;28;20029;-73
2024/02/27 02:08:35;;;;;;;7.63;2.40;;;4.00;99.90;;;;;;5026461;28;20036;-74
2024/02/27 02:11:03;;;;;;;7.93;2.25;;;3.90;99.90;;;;;;5028311;28;20102;-74
2024/02/27 02:13:29;;;;;;;3.10;1.52;;;3.90;99.90;;;;;;5025345;28;20045;-74
2024/02/27 02:15:55;;;;;;;3.50;1.70;;;3.90;99.90;;;;;;5034389;28;20040;-73
2024/02/27 02:18:20;;;;;;;3.88;1.90;;;3.90;99.90;;;;;;5043975;28;20056;-73
2024/02/27 02:20:46;;;;;;;4.05;1.67;;;3.90;99.90;;;;;;5046707;28;20636;-75
2024/02/27 02:23:11;;;;;;;5.57;2.30;;;3.90;99.90;;;;;;5036180;28;20528;-75
2024/02/27 02:25:37;;;;;;;6.18;1.85;;;3.90;99.90;;;;;;5029229;28;20789;-74
2024/02/27 02:28:04;;;;;;;3.97;1.35;;;3.90;99.90;;;;;;5040602;28;20120;-75
2024/02/27 02:30:29;;;;;;;5.07;2.33;;;3.90;99.90;;;;;;5040668;28;20037;-74
2024/02/27 02:32:55;;;;;;;5.88;1.92;;;3.90;99.90;;;;;;5039518;28;20502;-74
2024/02/27 02:35:21;;;;;;;6.60;1.80;;;3.90;99.90;;;;;;5028077;28;20049;-74
2024/02/27 02:37:51;;;;;;;4.82;1.95;;;3.90;99.90;;;;;;5042246;28;20048;-75
2024/02/27 02:40:17;;;;;;;5.60;1.58;;;3.90;99.90;;;;;;5041799;28;20044;-75
2024/02/27 02:42:43;;;;;;;5.38;1.70;;;3.90;99.90;;;;;;5040238;28;20444;-73
2024/02/27 02:45:09;;;;;;;6.68;1.92;;;3.90;99.90;;;;;;5029598;28;20039;-74
2024/02/27 02:47:35;;;;;;;6.57;1.83;;;3.90;99.90;;;;;;5028769;28;20033;-74
2024/02/27 02:50:01;;;;;;;5.22;2.28;;;3.90;99.90;;;;;;5038509;28;20041;-74
2024/02/27 02:52:26;;;;;;;4.38;1.60;;;3.80;99.90;;;;;;5041665;28;20072;-74
2024/02/27 02:54:52;;;;;;;5.18;2.38;;;3.90;99.90;;;;;;5026779;28;20108;-74
2024/02/27 02:57:18;;;;;;;4.13;1.73;;;3.90;99.90;;;;;;5041250;28;20127;-74
2024/02/27 02:59:44;;;;;;;5.60;2.05;;;3.80;99.90;;;;;;5028399;28;20082;-72
2024/02/27 03:02:09;;;;;;;5.07;1.98;;;3.90;99.90;;;;;;5043821;28;20517;-74
2024/02/27 03:04:35;;;;;;;4.47;1.92;;;3.90;99.90;;;;;;5028175;28;20021;-74
2024/02/27 03:07:00;;;;;;;5.85;1.83;;;3.80;99.90;;;;;;5040580;28;20382;-76
2024/02/27 03:09:26;;;;;;;13.00;3.00;;;3.80;99.90;;;;;;5041937;28;20045;-74
2024/02/27 03:11:51;;;;;;;3.38;1.70;;;3.80;99.90;;;;;;5043122;28;20036;-75
2024/02/27 03:14:17;;;;;;;5.07;1.80;;;3.80;99.90;;;;;;5046951;28;20180;-74
2024/02/27 03:16:45;;;;;;;5.40;2.08;;;3.80;99.90;;;;;;5059482;28;20025;-70
2024/02/27 03:19:10;;;;;;;3.15;1.40;;;3.80;99.90;;;;;;5049415;28;20498;-75
2024/02/27 03:21:36;;;;;;;12.63;2.75;;;3.70;99.90;;;;;;5049096;28;20076;-75
2024/02/27 03:24:02;;;;;;;4.20;1.98;;;3.70;99.90;;;;;;5047627;28;20024;-74
2024/02/27 03:26:28;;;;;;;4.00;1.73;;;3.70;99.90;;;;;;5049416;28;20071;-76
2024/02/27 03:28:53;;;;;;;5.80;2.42;;;3.70;99.90;;;;;;5047902;28;20043;-74
2024/02/27 03:31:19;;;;;;;7.07;2.05;;;3.70;99.90;;;;;;5048695;28;20458;-75
2024/02/27 03:33:44;;;;;;;5.20;2.10;;;3.70;99.90;;;;;;5065522;28;20029;-74
2024/02/27 03:36:10;;;;;;;4.57;2.60;;;3.80;99.90;;;;;;5067081;28;20029;-74
2024/02/27 03:38:36;;;;;;;6.72;2.47;;;3.70;99.90;;;;;;5047800;28;20056;-74
2024/02/27 03:41:02;;;;;;;9.30;2.70;;;3.70;99.90;;;;;;5026779;28;20029;-74
2024/02/27 03:43:28;;;;;;;5.85;2.38;;;3.70;99.90;;;;;;5027969;28;20055;-74
2024/02/27 03:45:54;;;;;;;5.32;2.58;;;3.70;99.90;;;;;;5044043;28;20108;-75
2024/02/27 03:48:19;;;;;;;8.68;2.80;;;3.70;99.90;;;;;;5028112;28;20116;-75
2024/02/27 03:50:45;;;;;;;8.23;2.58;;;3.70;99.90;;;;;;5040425;28;20036;-74
2024/02/27 03:53:10;;;;;;;9.73;2.40;;;3.70;99.90;;;;;;5025987;28;20095;-74
2024/02/27 03:55:37;;;;;;;5.78;2.83;;;3.70;99.90;;;;;;5027947;28;20125;-74
2024/02/27 03:58:03;;;;;;;5.28;2.15;;;3.70;99.90;;;;;;5040623;28;20075;-75
2024/02/27 04:00:28;;;;;;;10.30;2.25;;;3.70;99.90;;;;;;5044762;28;20040;-74
2024/02/27 04:02:55;;;;;;;4.93;2.70;;;3.70;99.90;;;;;;5027120;28;20029;-74
2024/02/27 04:05:22;;;;;;;4.72;2.20;;;3.70;99.90;;;;;;5044877;28;20029;-74
2024/02/27 04:07:47;;;;;;;7.82;2.80;;;3.70;99.90;;;;;;5044639;28;20037;-74
2024/02/27 04:10:13;;;;;;;6.57;2.88;;;3.70;99.90;;;;;;5027786;28;20086;-73
2024/02/27 04:12:38;;;;;;;7.63;2.95;;;3.60;99.90;;;;;;5024216;28;20029;-74
2024/02/27 04:15:04;;;;;;;11.88;3.05;;;3.70;99.90;;;;;;5027197;28;20402;-74
2024/02/27 04:17:30;;;;;;;4.80;2.03;;;3.60;99.90;;;;;;5043799;28;20037;-74
2024/02/27 04:19:57;;;;;;;6.28;2.72;;;3.60;99.90;;;;;;5025325;28;20056;-74
2024/02/27 04:22:23;;;;;;;7.15;2.67;;;3.70;99.90;;;;;;5023552;28;20049;-74
2024/02/27 04:24:49;;;;;;;12.27;2.92;;;3.60;99.90;;;;;;5027544;28;20071;-76
2024/02/27 04:27:14;;;;;;;5.70;2.63;;;3.70;99.90;;;;;;5046244;28;20050;-73
2024/02/27 04:29:41;;;;;;;8.73;3.33;;;3.70;99.90;;;;;;5040934;28;20100;-75
2024/02/27 04:32:07;;;;;;;6.82;3.17;;;3.70;99.90;;;;;;5045681;28;20120;-75
2024/02/27 04:34:33;;;;;;;5.90;2.58;;;3.60;99.90;;;;;;5044565;28;20116;-73
2024/02/27 04:36:59;;;;;;;7.95;3.22;;;3.60;99.90;;;;;;5045038;28;20179;-74
2024/02/27 04:39:25;;;;;;;6.60;3.10;;;3.60;99.90;;;;;;5044166;28;20037;-74
2024/02/27 04:41:50;;;;;;;8.52;3.75;;;3.60;99.90;;;;;;5044539;28;20571;-74
2024/02/27 04:44:19;;;;;;;10.73;3.58;;;3.60;99.90;;;;;;5043870;28;20049;-74
2024/02/27 04:46:45;;;;;;;6.88;2.95;;;3.60;99.90;;;;;;5041872;28;20041;-74
2024/02/27 04:49:11;;;;;;;8.07;3.30;;;3.70;99.90;;;;;;5029081;28;20395;-74
2024/02/27 04:51:36;;;;;;;5.88;2.47;;;3.60;99.90;;;;;;5040690;28;20119;-74
2024/02/27 04:54:02;;;;;;;9.25;3.47;;;3.70;99.90;;;;;;5030849;28;20075;-74
2024/02/27 04:56:27;;;;;;;8.68;3.47;;;3.70;99.90;;;;;;5037197;28;20072;-74
2024/02/27 04:58:53;;;;;;;11.38;3.33;;;3.70;99.90;;;;;;5035559;28;20113;-75
2024/02/27 05:01:19;;;;;;;13.02;3.75;;;3.70;99.90;;;;;;5023810;28;20037;-75
2024/02/27 05:03:44;;;;;;;11.60;3.67;;;3.70;99.90;;;;;;5034774;28;20038;-73
2024/02/27 05:06:10;;;;;;;10.82;3.88;;;3.70;99.90;;;;;;5039310;28;20037;-75
2024/02/27 05:08:35;;;;;;;8.70;4.10;;;3.70;99.90;;;;;;5025610;28;20555;-73
2024/02/27 05:11:01;;;;;;;7.70;3.25;;;3.70;99.90;;;;;;5035831;28;20046;-74
2024/02/27 05:13:26;;;;;;;20.15;3.97;;;3.70;99.90;;;;;;5037984;28;20576;-75
2024/02/27 05:15:52;;;;;;;11.55;3.72;;;3.80;99.90;;;;;;5024906;28;20462;-74
2024/02/27 05:18:18;;;;;;;11.85;3.15;;;3.70;99.90;;;;;;5038718;28;20037;-74
2024/02/27 05:20:43;;;;;;;8.18;3.45;;;3.70;99.90;;;;;;5044029;28;20529;-75
2024/02/27 05:23:09;;;;;;;11.55;3.60;;;3.70;99.90;;;;;;5044873;28;20071;-74
2024/02/27 05:25:34;;;;;;;9.13;3.55;;;3.70;99.90;;;;;;5044704;28;20125;-74
2024/02/27 05:28:00;;;;;;;6.53;2.90;;;3.60;99.90;;;;;;5044769;28;21837;-75
2024/02/27 05:30:25;;;;;;;14.60;3.80;;;3.60;99.90;;;;;;5044276;28;20044;-74
2024/02/27 05:32:51;;;;;;;8.60;3.63;;;3.70;99.90;;;;;;5043134;28;20451;-74
2024/02/27 05:35:16;;;;;;;10.70;3.72;;;3.70;99.90;;;;;;5038482;28;20044;-74
2024/02/27 05:37:42;;;;;;;10.15;3.65;;;3.70;99.90;;;;;;5043135;28;20501;-75
2024/02/27 05:40:10;;;;;;;7.72;3.50;;;3.70;99.90;;;;;;5042805;28;20041;-74
2024/02/27 05:42:36;;;;;;;10.02;3.92;;;3.70;99.90;;;;;;5045739;28;20037;-73
2024/02/27 05:45:04;;;;;;;11.63;3.58;;;3.70;99.90;;;;;;5045841;28;20033;-73
2024/02/27 05:47:29;;;;;;;10.27;4.30;;;3.70;99.90;;;;;;5043551;28;20045;-74
2024/02/27 05:49:55;;;;;;;11.07;3.70;;;3.70;99.90;;;;;;5040393;28;20041;-74
2024/02/27 05:52:20;;;;;;;8.60;3.85;;;3.60;99.90;;;;;;5042628;28;20450;-74
2024/02/27 05:54:46;;;;;;;9.32;4.55;;;3.60;99.90;;;;;;5039987;28;20032;-74
2024/02/27 05:57:12;;;;;;;8.68;3.92;;;3.70;99.90;;;;;;5045369;28;20032;-74
2024/02/27 05:59:37;;;;;;;11.40;3.88;;;3.60;99.90;;;;;;5042878;28;20041;-73
2024/02/27 06:02:04;;;;;;;6.55;3.22;;;3.60;99.90;;;;;;5044354;28;20044;-74
2024/02/27 06:04:31;;;;;;;11.05;4.63;;;3.60;99.90;;;;;;5042656;28;20032;-74
2024/02/27 06:06:57;;;;;;;11.48;5.28;;;3.60;99.90;;;;;;5043495;28;20034;-74
2024/02/27 06:09:23;;;;;;;12.30;3.97;;;3.60;99.90;;;;;;5042765;28;20071;-74
2024/02/27 06:11:48;;;;;;;8.45;3.13;;;3.60;99.90;;;;;;5039787;28;20127;-75
2024/02/27 06:14:14;;;;;;;8.63;3.40;;;3.50;99.90;;;;;;5043240;28;20033;-75
2024/02/27 06:16:40;;;;;;;10.30;3.97;;;3.50;99.90;;;;;;5042536;28;20029;-74
2024/02/27 06:19:06;;;;;;;8.45;3.38;;;3.50;99.90;;;;;;5032876;28;20057;-74
2024/02/27 06:24:15;;;;;;;10.45;4.55;;;3.50;99.90;;;;;;5048560;28;20037;-74
2024/02/27 06:26:41;;;;;;;8.77;3.88;;;3.50;99.90;;;;;;5056045;28;20041;-74
2024/02/27 06:29:07;;;;;;;10.27;4.13;;;3.40;99.90;;;;;;5048912;28;20025;-74
2024/02/27 06:31:32;;;;;;;12.70;3.90;;;3.50;99.90;;;;;;5044296;28;20021;-74
2024/02/27 06:33:58;;;;;;;11.52;4.50;;;3.50;99.90;;;;;;5043147;28;20025;-74
2024/02/27 06:36:23;;;;;;;16.98;5.53;;;3.50;99.90;;;;;;5042907;28;20021;-74
2024/02/27 06:38:49;;;;;;;8.82;4.07;;;3.50;99.90;;;;;;5042214;28;20053;-75
2024/02/27 06:41:14;;;;;;;9.88;4.13;;;3.50;99.90;;;;;;5026294;28;20393;-74
2024/02/27 06:43:40;;;;;;;14.45;3.83;;;3.50;99.90;;;;;;5028339;28;20103;-74
2024/02/27 06:46:05;;;;;;;8.50;3.80;;;3.50;99.90;;;;;;5029572;28;20048;-74
2024/02/27 06:48:32;;;;;;;10.57;5.10;;;3.50;99.90;;;;;;5044777;28;20033;-74
2024/02/27 06:50:58;;;;;;;12.77;4.40;;;3.50;99.90;;;;;;5028559;28;20732;-73
2024/02/27 06:53:24;;;;;;;11.13;4.47;;;3.50;99.90;;;;;;5044317;28;20200;-73
2024/02/27 06:55:50;;;;;;;11.85;4.32;;;3.40;99.90;;;;;;5042133;28;20541;-75
2024/02/27 06:58:16;;;;;;;10.02;4.75;;;3.40;99.90;;;;;;5043032;28;20025;-73
2024/02/27 07:00:42;;;;;;;10.55;4.78;;;3.50;99.90;;;;;;5041226;28;20064;-74
2024/02/27 07:03:07;;;;;;;10.00;4.47;;;3.50;99.90;;;;;;5041477;28;20029;-74
2024/02/27 07:05:34;;;;;;;12.13;4.75;;;3.50;99.90;;;;;;5040803;28;20033;-74
2024/02/27 07:08:00;;;;;;;12.60;4.70;;;3.50;99.90;;;;;;5045877;28;20028;-74
2024/02/27 07:10:25;;;;;;;14.35;4.90;;;3.50;99.90;;;;;;5045523;28;20032;-74
2024/02/27 07:12:51;;;;;;;16.98;5.30;;;3.50;99.90;;;;;;5041744;28;20040;-74
2024/02/27 07:15:16;;;;;;;9.82;4.22;;;3.50;99.90;;;;;;5039971;28;20029;-73
2024/02/27 07:17:42;;;;;;;8.82;3.78;;;3.50;99.90;;;;;;5037914;28;20029;-73
2024/02/27 07:20:09;;;;;;;11.07;4.38;;;3.60;99.90;;;;;;5037226;28;20044;-74
2024/02/27 07:22:35;;;;;;;11.10;5.22;;;3.60;99.90;;;;;;5042192;28;20036;-73
2024/02/27 07:25:01;;;;;;;11.88;4.15;;;3.60;99.90;;;;;;5041313;28;20044;-72
2024/02/27 07:27:26;;;;;;;12.30;5.45;;;3.60;99.90;;;;;;5049722;28;20045;-73
2024/02/27 07:29:52;;;;;;;12.35;5.03;;;3.60;99.90;;;;;;5043164;28;20147;-75
2024/02/27 07:32:17;;;;;;;9.85;4.40;;;3.60;99.90;;;;;;5037654;28;20025;-75
2024/02/27 07:34:43;;;;;;;11.65;5.20;;;3.70;99.90;;;;;;5035908;28;20051;-72
2024/02/27 07:37:13;;;;;;;12.18;4.85;;;3.70;99.90;;;;;;5038115;28;20033;-73
2024/02/27 07:39:39;;;;;;;8.30;4.28;;;3.80;99.90;;;;;;5041271;28;20040;-72
2024/02/27 07:42:05;;;;;;;10.13;4.22;;;3.80;99.90;;;;;;5035746;28;20037;-73
2024/02/27 07:44:31;;;;;;;10.00;3.72;;;3.90;99.90;;;;;;5036938;28;20033;-73
2024/02/27 07:46:56;;;;;;;9.95;4.20;;;4.00;99.90;;;;;;5038081;28;20418;-75
2024/02/27 07:49:22;;;;;;;12.95;3.90;;;4.10;99.90;;;;;;5044949;28;20033;-74
2024/02/27 07:51:48;;;;;;;10.55;4.18;;;4.10;99.90;;;;;;5036617;28;20026;-75
2024/02/27 07:54:16;;;;;;;8.50;3.70;;;4.20;99.90;;;;;;5040411;28;20049;-74
2024/02/27 07:56:43;;;;;;;10.00;3.55;;;4.30;99.90;;;;;;5033422;28;20029;-73
2024/02/27 07:59:09;;;;;;;13.38;4.25;;;4.40;99.90;;;;;;5038457;28;20557;-74
2024/02/27 08:01:35;;;;;;;9.88;4.00;;;4.50;99.90;;;;;;5032930;28;20040;-75
2024/02/27 08:04:01;;;;;;;11.32;4.63;;;4.60;99.90;;;;;;5035453;28;20030;-74
2024/02/27 08:06:27;;;;;;;10.88;3.83;;;4.70;99.90;;;;;;5049674;28;20155;-74
2024/02/27 08:08:54;;;;;;;11.85;3.70;;;4.80;99.90;;;;;;5051036;28;20033;-75
2024/02/27 08:11:21;;;;;;;11.82;4.63;;;4.90;99.90;;;;;;5052888;28;20040;-76
2024/02/27 08:13:47;;;;;;;8.70;3.92;;;5.10;99.90;;;;;;5037403;28;20499;-75
2024/02/27 08:16:13;;;;;;;9.93;3.63;;;5.10;99.90;;;;;;5041129;28;20057;-73
2024/02/27 08:18:38;;;;;;;12.15;4.25;;;5.30;99.90;;;;;;5042441;28;20082;-74
2024/02/27 08:21:04;;;;;;;6.28;2.80;;;5.50;99.90;;;;;;5040574;28;20555;-77
2024/02/27 08:23:30;;;;;;;7.85;3.05;;;5.60;99.90;;;;;;5036291;28;20045;-75
2024/02/27 08:25:56;;;;;;;7.63;2.80;;;5.70;99.90;;;;;;5034911;28;20060;-76
2024/02/27 08:28:22;;;;;;;6.38;2.80;;;5.70;99.90;;;;;;5034737;28;20140;-74
2024/02/27 08:30:48;;;;;;;11.93;3.70;;;5.60;99.90;;;;;;5036479;28;20127;-74
2024/02/27 08:33:14;;;;;;;7.10;2.78;;;5.60;99.90;;;;;;5039876;28;20065;-74
2024/02/27 08:35:39;;;;;;;8.30;3.35;;;5.70;99.90;;;;;;5037493;28;20041;-76
2024/02/27 08:38:05;;;;;;;7.28;2.60;;;5.70;99.90;;;;;;5043738;28;20041;-75
2024/02/27 08:40:31;;;;;;;8.40;3.17;;;5.80;99.90;;;;;;5041215;28;20108;-75
2024/02/27 08:42:58;;;;;;;9.05;3.30;;;5.90;99.90;;;;;;5042136;28;20112;-74
2024/02/27 08:45:23;;;;;;;7.85;2.60;;;6.00;99.90;;;;;;5046915;28;20465;-75
2024/02/27 08:47:50;;;;;;;8.10;3.35;;;6.10;99.90;;;;;;5038371;28;20094;-74
2024/02/27 08:50:16;;;;;;;7.32;2.85;;;6.00;99.90;;;;;;5035634;28;20037;-75
2024/02/27 08:52:42;;;;;;;12.30;3.45;;;6.10;99.90;;;;;;5053634;28;20075;-74
2024/02/27 08:55:08;;;;;;;4.75;2.47;;;6.10;99.90;;;;;;5055990;28;20453;-74
2024/02/27 08:57:34;;;;;;;6.90;2.65;;;6.00;99.90;;;;;;5049120;28;20041;-75
2024/02/27 09:00:01;;;;;;;9.07;3.30;;;6.00;99.90;;;;;;5047569;28;20485;-74
2024/02/27 09:02:26;;;;;;;10.77;3.28;;;6.00;99.90;;;;;;5037916;28;20502;-74
2024/02/27 09:04:52;;;;;;;9.07;2.72;;;6.00;99.90;;;;;;5044877;28;20039;-75
2024/02/27 09:07:18;;;;;;;6.93;2.72;;;6.10;99.90;;;;;;5041802;28;20044;-75
2024/02/27 09:09:44;;;;;;;8.48;2.80;;;6.20;99.90;;;;;;5046624;28;20032;-72
2024/02/27 09:12:10;;;;;;;7.90;2.55;;;6.20;99.90;;;;;;5043870;28;20052;-75
2024/02/27 09:14:36;;;;;;;10.50;2.75;;;6.20;99.90;;;;;;5042959;28;20379;-75
2024/02/27 09:17:02;;;;;;;11.02;2.75;;;6.30;99.90;;;;;;5042160;28;20442;-77
2024/02/27 09:19:29;;;;;;;5.35;2.10;;;6.40;99.90;;;;;;5042757;28;20046;-75
2024/02/27 09:21:55;;;;;;;11.10;3.88;;;6.40;99.90;;;;;;5042011;28;20071;-75
2024/02/27 09:24:20;;;;;;;7.63;3.33;;;6.40;99.90;;;;;;5041394;28;20060;-73
2024/02/27 09:26:46;;;;;;;5.95;2.50;;;6.40;99.90;;;;;;5036038;28;20055;-75
2024/02/27 09:29:12;;;;;;;5.25;2.55;;;6.50;99.90;;;;;;5042236;28;20051;-75
2024/02/27 09:31:37;;;;;;;6.50;2.30;;;6.50;99.90;;;;;;5026682;28;20499;-74
2024/02/27 09:34:03;;;;;;;6.18;2.42;;;6.50;99.90;;;;;;5038386;28;20076;-74
2024/02/27 09:36:29;;;;;;;6.88;2.95;;;6.50;99.90;;;;;;5044574;28;20037;-75
2024/02/27 09:38:54;;;;;;;7.95;2.42;;;6.50;99.90;;;;;;5043989;28;20070;-75
2024/02/27 09:41:50;;;;;;;5.55;2.72;;;6.50;99.90;;;;;;5031633;28;20045;-76
2024/02/27 09:44:16;;;;;;;9.93;3.33;;;6.50;99.90;;;;;;5039335;28;20033;-74
2024/02/27 09:46:43;;;;;;;5.05;2.17;;;6.60;99.90;;;;;;5043165;28;20116;-74
2024/02/27 09:49:09;;;;;;;7.53;2.60;;;6.60;99.90;;;;;;5040513;28;20018;-75
2024/02/27 09:51:38;;;;;;;5.63;2.47;;;6.60;99.90;;;;;;5044114;28;20028;-75
2024/02/27 09:54:05;;;;;;;4.78;2.20;;;6.60;99.90;;;;;;5026495;28;20026;-74
2024/02/27 09:56:32;;;;;;;7.05;3.17;;;6.70;99.90;;;;;;5049240;28;20033;-74
2024/02/27 09:58:59;;;;;;;6.97;2.97;;;6.70;99.90;;;;;;5050065;28;20051;-73
2024/02/27 10:01:28;;;;;;;6.18;2.85;;;6.70;99.90;;;;;;5071402;28;20039;-70
2024/02/27 10:03:53;;;;;;;4.85;2.70;;;6.80;99.90;;;;;;5060382;28;20048;-71
2024/02/27 10:06:20;;;;;;;4.40;2.30;;;6.80;99.90;;;;;;5054326;28;20029;-72
2024/02/27 10:08:49;;;;;;;4.75;2.47;;;6.70;99.90;;;;;;5050430;28;20028;-73
2024/02/27 10:11:17;;;;;;;5.90;2.40;;;6.80;99.90;;;;;;5049649;28;20696;-71
2024/02/27 10:13:42;;;;;;;4.32;2.60;;;6.90;99.90;;;;;;5050390;28;20068;-72
2024/02/27 10:16:08;;;;;;;6.95;2.42;;;7.00;99.90;;;;;;5070623;28;20117;-74
2024/02/27 10:18:34;;;;;;;6.20;2.58;;;7.00;99.90;;;;;;5059847;28;20051;-72
2024/02/27 10:20:59;;;;;;;8.10;2.25;;;6.90;99.90;;;;;;5063930;28;20566;-73
2024/02/27 10:23:25;;;;;;;3.90;2.33;;;6.90;99.90;;;;;;5050782;28;20067;-73
2024/02/27 10:25:51;;;;;;;3.92;2.33;;;7.00;99.90;;;;;;5049626;28;20029;-73
2024/02/27 10:28:21;;;;;;;8.05;2.88;;;7.00;99.90;;;;;;5050984;28;20044;-72
2024/02/27 10:30:47;;;;;;;4.85;2.05;;;7.00;99.90;;;;;;5067903;28;20044;-73
2024/02/27 10:33:15;;;;;;;10.68;3.13;;;7.10;99.90;;;;;;5049570;28;20135;-73
2024/02/27 10:35:41;;;;;;;4.15;2.13;;;7.10;99.90;;;;;;5051282;28;20036;-72
2024/02/27 10:38:18;;;;;;;6.53;2.33;;;7.10;99.90;;;;;;5067158;28;20036;-74
2024/02/27 10:40:44;;;;;;;7.60;3.10;;;7.10;99.90;;;;;;5049945;28;20040;-71
2024/02/27 10:43:10;;;;;;;6.05;2.42;;;7.10;99.90;;;;;;5068172;28;20082;-74
2024/02/27 10:45:35;;;;;;;7.25;2.90;;;7.20;99.90;;;;;;5050208;28;20037;-72
2024/02/27 10:48:03;;;;;;;5.53;2.60;;;7.20;99.90;;;;;;5049481;28;22093;-74
2024/02/27 10:50:29;;;;;;;3.92;2.25;;;7.30;99.90;;;;;;5068715;28;20040;-73
2024/02/27 10:52:56;;;;;;;7.65;2.38;;;7.30;99.90;;;;;;5067422;28;20037;-73
2024/02/27 10:55:24;;;;;;;4.85;2.28;;;7.30;99.90;;;;;;5050264;28;20852;-73
2024/02/27 10:57:50;;;;;;;3.88;2.13;;;7.30;99.90;;;;;;5064481;28;20039;-73
2024/02/27 11:00:17;;;;;;;6.75;2.58;;;7.40;99.90;;;;;;5068700;28;20078;-73
2024/02/27 11:02:48;;;;;;;4.80;2.55;;;7.40;99.90;;;;;;5070584;28;20098;-74
2024/02/27 11:05:14;;;;;;;5.43;2.50;;;7.50;99.90;;;;;;5064766;28;20043;-72
2024/02/27 11:07:41;;;;;;;8.48;2.35;;;7.50;99.90;;;;;;5071196;28;20035;-74
2024/02/27 11:10:10;;;;;;;5.53;2.63;;;7.50;99.90;;;;;;5067047;28;20040;-72
2024/02/27 11:12:36;;;;;;;3.97;1.95;;;7.50;99.90;;;;;;5068401;28;20066;-73
2024/02/27 11:15:08;;;;;;;4.03;1.90;;;7.50;99.90;;;;;;5066578;28;20044;-74
2024/02/27 11:17:39;;;;;;;5.55;2.70;;;7.50;99.90;;;;;;5067603;28;20489;-74
2024/02/27 11:20:06;;;;;;;5.30;2.03;;;7.40;99.90;;;;;;5047875;28;20123;-74
2024/02/27 11:22:33;;;;;;;5.15;2.70;;;7.40;99.90;;;;;;5052874;28;20043;-71
2024/02/27 11:24:59;;;;;;;3.45;1.65;;;7.40;99.90;;;;;;5039148;28;20164;-76
2024/02/27 11:27:26;;;;;;;5.82;2.55;;;7.50;99.90;;;;;;5035961;28;20540;-73
2024/02/27 11:29:54;;;;;;;7.07;2.25;;;7.50;99.90;;;;;;5036726;28;20052;-74
2024/02/27 11:32:20;;;;;;;4.05;1.90;;;7.50;99.90;;;;;;5039090;28;20048;-75
2024/02/27 11:34:47;;;;;;;5.75;1.80;;;7.50;99.90;;;;;;5036569;28;20067;-75
2024/02/27 11:37:22;;;;;;;4.88;2.22;;;7.60;99.90;;;;;;5040672;28;20031;-74
2024/02/27 11:39:49;;;;;;;5.32;2.05;;;7.60;99.90;;;;;;5034627;28;20048;-73
2024/02/27 11:42:37;;;;;;;6.13;2.40;;;7.70;99.90;;;;;;5039181;28;20500;-71
2024/02/27 11:45:12;;;;;;;5.40;1.85;;;7.70;99.90;;;;;;5034964;28;20501;-74
2024/02/27 11:47:53;;;;;;;3.60;1.70;;;7.70;99.90;;;;;;5044916;28;20052;-72
2024/02/27 11:50:37;;;;;;;4.35;2.10;;;7.80;99.90;;;;;;5056426;28;20059;-76
2024/02/27 11:53:24;;;;;;;4.10;2.15;;;7.80;99.90;;;;;;5039904;28;20049;-75
2024/02/27 11:55:53;;;;;;;3.50;1.73;;;7.80;99.90;;;;;;5037509;28;20044;-75
2024/02/27 11:58:22;;;;;;;4.47;2.28;;;7.90;99.90;;;;;;5042362;28;20845;-72
2024/02/27 12:00:49;;;;;;;5.40;2.63;;;7.90;99.90;;;;;;5039073;28;20055;-73
2024/02/27 12:03:15;;;;;;;5.45;2.05;;;7.90;99.90;;;;;;5037099;28;20037;-73
2024/02/27 12:05:43;;;;;;;5.88;3.08;;;7.90;99.90;;;;;;5038575;28;20029;-73
2024/02/27 12:08:09;;;;;;;4.82;2.42;;;7.90;99.90;;;;;;5036041;28;20094;-74
2024/02/27 12:10:35;;;;;;;3.17;1.98;;;8.00;99.90;;;;;;5042839;28;20040;-72
2024/02/27 12:13:00;;;;;;;4.13;2.30;;;8.10;99.90;;;;;;5040398;28;20116;-72
2024/02/27 12:15:26;;;;;;;6.30;1.98;;;8.10;99.90;;;;;;5044184;28;20068;-73
2024/02/27 12:17:53;;;;;;;3.38;1.80;;;8.10;99.90;;;;;;5042735;28;20041;-74
2024/02/27 12:20:19;;;;;;;6.05;2.45;;;8.10;99.90;;;;;;5043890;28;20462;-74
2024/02/27 12:22:46;;;;;;;5.35;2.33;;;8.20;99.90;;;;;;5034418;28;23650;-73
2024/02/27 12:25:12;;;;;;;4.18;2.10;;;8.30;99.90;;;;;;5040633;28;20037;-73
2024/02/27 12:27:38;;;;;;;4.75;1.63;;;8.30;99.90;;;;;;5039213;28;20029;-74
2024/02/27 12:30:10;;;;;;;5.60;1.70;;;8.30;99.90;;;;;;5036173;28;20029;-73
2024/02/27 12:32:44;;;;;;;2.78;1.60;;;8.20;99.90;;;;;;5040491;28;20037;-74
2024/02/27 12:35:12;;;;;;;5.30;1.80;;;8.30;99.90;;;;;;5046477;28;20037;-73
2024/02/27 12:37:42;;;;;;;3.55;1.80;;;8.30;99.90;;;;;;5055785;28;21667;-72
2024/02/27 12:40:12;;;;;;;4.43;2.10;;;8.20;99.90;;;;;;5041814;28;20041;-73
2024/02/27 12:42:43;;;;;;;3.78;1.70;;;8.20;99.90;;;;;;5036978;28;20037;-71
2024/02/27 12:45:11;;;;;;;4.07;1.58;;;8.30;99.90;;;;;;5039362;28;20151;-71
2024/02/27 12:47:38;;;;;;;2.92;1.52;;;8.30;99.90;;;;;;5041488;28;20041;-73
2024/02/27 12:50:04;;;;;;;5.75;1.95;;;8.30;99.90;;;;;;5039270;28;20140;-72
2024/02/27 12:52:30;;;;;;;3.58;1.77;;;8.30;99.90;;;;;;5038885;28;20083;-72
2024/02/27 12:54:56;;;;;;;3.97;1.95;;;8.30;99.90;;;;;;5039238;28;20806;-73